Time;durP1;ratioP1;P1;durP2;ratioP2;P2;SDS_P1;SDS_P2;PMS_P1;PMS_P2;Temp;Humidity;BMP_temperature;BMP_pressure;BME280_temperature;BME280_humidity;BME280_pressure;Samples;Min_cycle;Max_cycle;Signal;HPM_P1;HPM_P2
2023/01/22 00:01:58;;;;;;;31.63;21.90;;;;;;;;;;5071190;28;20432;-70
2023/01/22 00:04:25;;;;;;;30.60;20.58;;;;;;;;;;5057820;28;20213;-70
2023/01/22 00:06:51;;;;;;;27.45;19.77;;;;;;;;;;5057635;28;20225;-70
2023/01/22 00:09:17;;;;;;;23.38;16.85;;;;;;;;;;5057487;28;20213;-70
2023/01/22 00:11:43;;;;;;;26.48;18.70;;;;;;;;;;5057135;28;20216;-70
2023/01/22 00:14:10;;;;;;;39.47;23.88;;;;;;;;;;5058275;28;20209;-70
2023/01/22 00:16:36;;;;;;;37.47;22.35;;;;;;;;;;5057914;28;20213;-70
2023/01/22 00:19:03;;;;;;;29.15;18.85;;;;;;;;;;5076213;28;20200;-70
2023/01/22 00:21:30;;;;;;;31.75;19.95;;;;;;;;;;5095076;28;20199;-70
2023/01/22 00:23:56;;;;;;;28.45;18.58;;;;;;;;;;5103310;28;20207;-70
2023/01/22 00:26:22;;;;;;;27.40;19.50;;;;;;;;;;5103603;28;20223;-70
2023/01/22 00:28:48;;;;;;;40.85;26.95;;;;;;;;;;5103239;28;20219;-69
2023/01/22 00:31:15;;;;;;;27.55;18.42;;;;;;;;;;5103634;28;20200;-69
2023/01/22 00:33:41;;;;;;;19.00;15.00;;;;;;;;;;5103316;28;20475;-70
2023/01/22 00:36:10;;;;;;;22.10;15.20;;;;;;;;;;5103835;28;20304;-70
2023/01/22 00:38:36;;;;;;;21.50;14.80;;;;;;;;;;5103210;28;20204;-70
2023/01/22 00:41:03;;;;;;;22.65;15.18;;;;;;;;;;5103399;28;20222;-69
2023/01/22 00:43:29;;;;;;;18.75;13.70;;;;;;;;;;5103280;28;20252;-69
2023/01/22 00:45:56;;;;;;;20.70;15.75;;;;;;;;;;5103186;28;20192;-69
2023/01/22 00:48:22;;;;;;;20.27;14.13;;;;;;;;;;5102856;28;20539;-69
2023/01/22 00:50:48;;;;;;;20.40;13.93;;;;;;;;;;5102969;28;20199;-69
2023/01/22 00:53:16;;;;;;;20.38;14.82;;;;;;;;;;5103201;28;20199;-69
2023/01/22 00:55:49;;;;;;;19.35;13.57;;;;;;;;;;5103148;28;20196;-69
2023/01/22 00:58:16;;;;;;;18.70;14.00;;;;;;;;;;5102791;28;20424;-69
2023/01/22 01:00:42;;;;;;;17.10;13.55;;;;;;;;;;5102872;28;20511;-69
2023/01/22 01:03:26;;;;;;;18.85;14.70;;;;;;;;;;5102890;28;20203;-69
2023/01/22 01:05:52;;;;;;;17.48;12.93;;;;;;;;;;5102949;28;20503;-69
2023/01/22 01:08:20;;;;;;;18.48;13.38;;;;;;;;;;5102680;28;20212;-69
2023/01/22 01:10:47;;;;;;;19.90;13.48;;;;;;;;;;5102604;28;20196;-69
2023/01/22 01:13:13;;;;;;;20.30;13.10;;;;;;;;;;5102910;28;20217;-69
2023/01/22 01:15:39;;;;;;;20.85;13.95;;;;;;;;;;5103101;28;20199;-69
2023/01/22 01:18:07;;;;;;;18.23;13.65;;;;;;;;;;5102574;28;20191;-69
2023/01/22 01:20:34;;;;;;;20.55;13.85;;;;;;;;;;5102776;28;20230;-69
2023/01/22 01:23:00;;;;;;;20.30;14.07;;;;;;;;;;5102346;28;20249;-69
2023/01/22 01:25:27;;;;;;;18.30;14.18;;;;;;;;;;5102399;28;20199;-69
2023/01/22 01:27:55;;;;;;;18.77;14.27;;;;;;;;;;5102105;28;20290;-69
2023/01/22 01:30:21;;;;;;;21.00;14.13;;;;;;;;;;5102192;28;20196;-69
2023/01/22 01:32:48;;;;;;;20.85;14.70;;;;;;;;;;5102702;28;20196;-69
2023/01/22 01:35:14;;;;;;;19.67;14.18;;;;;;;;;;5102409;28;20207;-69
2023/01/22 01:37:40;;;;;;;20.30;14.32;;;;;;;;;;5102366;28;20191;-69
2023/01/22 01:40:07;;;;;;;19.95;14.55;;;;;;;;;;5102307;28;20384;-69
2023/01/22 01:42:38;;;;;;;20.20;14.60;;;;;;;;;;5102313;28;20196;-69
2023/01/22 01:45:26;;;;;;;20.58;15.40;;;;;;;;;;5102179;28;20195;-69
2023/01/22 01:47:54;;;;;;;21.77;15.02;;;;;;;;;;5102216;28;20208;-69
2023/01/22 01:50:21;;;;;;;17.23;13.15;;;;;;;;;;5102290;28;20245;-69
2023/01/22 01:52:47;;;;;;;20.92;15.27;;;;;;;;;;5102208;28;20203;-69
2023/01/22 01:55:15;;;;;;;20.85;14.93;;;;;;;;;;5102077;28;20196;-69
2023/01/22 01:57:42;;;;;;;21.50;15.50;;;;;;;;;;5103538;28;20195;-69
2023/01/22 02:00:12;;;;;;;19.48;14.73;;;;;;;;;;5106492;28;20218;-69
2023/01/22 02:02:39;;;;;;;20.73;14.75;;;;;;;;;;5106629;28;20408;-69
2023/01/22 02:05:06;;;;;;;20.15;14.98;;;;;;;;;;5106485;28;20199;-69
2023/01/22 02:07:32;;;;;;;20.05;14.23;;;;;;;;;;5105992;28;20215;-69
2023/01/22 02:09:58;;;;;;;21.45;15.13;;;;;;;;;;5106273;28;20195;-69
2023/01/22 02:12:25;;;;;;;18.77;13.88;;;;;;;;;;5106537;28;20320;-69
2023/01/22 02:14:52;;;;;;;18.70;13.85;;;;;;;;;;5106226;28;20202;-69
2023/01/22 02:17:20;;;;;;;20.38;14.35;;;;;;;;;;5105510;28;20225;-70
2023/01/22 02:19:46;;;;;;;19.35;14.38;;;;;;;;;;5106115;28;20199;-70
2023/01/22 02:22:15;;;;;;;22.35;15.02;;;;;;;;;;5105916;28;20523;-70
2023/01/22 02:24:41;;;;;;;20.42;14.00;;;;;;;;;;5105808;28;20234;-70
2023/01/22 02:27:08;;;;;;;21.27;15.13;;;;;;;;;;5106000;28;20219;-70
2023/01/22 02:29:34;;;;;;;21.63;15.05;;;;;;;;;;5105615;28;20211;-69
2023/01/22 02:32:00;;;;;;;20.30;15.20;;;;;;;;;;5105740;28;20258;-69
2023/01/22 02:34:26;;;;;;;23.23;15.82;;;;;;;;;;5105874;28;20203;-69
2023/01/22 02:36:53;;;;;;;20.92;15.25;;;;;;;;;;5105764;28;20208;-69
2023/01/22 02:39:20;;;;;;;20.40;14.48;;;;;;;;;;5105402;28;20233;-70
2023/01/22 02:41:46;;;;;;;19.65;14.50;;;;;;;;;;5105678;28;20212;-70
2023/01/22 02:44:13;;;;;;;21.15;14.77;;;;;;;;;;5105689;28;20249;-70
2023/01/22 02:46:39;;;;;;;22.08;14.38;;;;;;;;;;5105723;28;20196;-69
2023/01/22 02:49:05;;;;;;;21.75;14.90;;;;;;;;;;5105131;28;20400;-69
2023/01/22 02:51:32;;;;;;;19.75;14.85;;;;;;;;;;5105441;28;20361;-69
2023/01/22 02:53:58;;;;;;;20.60;15.13;;;;;;;;;;5105437;28;20556;-69
2023/01/22 02:56:26;;;;;;;18.63;14.13;;;;;;;;;;5105234;28;20202;-69
2023/01/22 02:58:52;;;;;;;22.52;15.63;;;;;;;;;;5105249;28;20226;-69
2023/01/22 03:01:20;;;;;;;22.38;15.18;;;;;;;;;;5105379;28;20200;-69
2023/01/22 03:03:46;;;;;;;22.77;15.50;;;;;;;;;;5105228;28;20196;-69
2023/01/22 03:06:14;;;;;;;21.58;15.30;;;;;;;;;;5105499;28;20199;-69
2023/01/22 03:08:41;;;;;;;20.42;15.70;;;;;;;;;;5103831;28;20220;-69
2023/01/22 03:11:07;;;;;;;22.45;15.98;;;;;;;;;;5104566;28;20195;-69
2023/01/22 03:21:46;;;;;;;22.63;16.13;;;;;;;;;;5104989;28;20233;-69
2023/01/22 03:24:12;;;;;;;22.10;15.25;;;;;;;;;;5104712;28;20212;-69
2023/01/22 03:26:47;;;;;;;20.88;15.23;;;;;;;;;;5104677;28;20526;-69
2023/01/22 03:29:14;;;;;;;19.90;14.70;;;;;;;;;;5104190;28;20530;-69
2023/01/22 03:31:41;;;;;;;22.48;15.65;;;;;;;;;;5104893;28;20429;-69
2023/01/22 03:34:07;;;;;;;18.77;14.10;;;;;;;;;;5104389;28;20196;-70
2023/01/22 03:36:33;;;;;;;20.75;14.57;;;;;;;;;;5104667;28;20195;-69
2023/01/22 03:39:00;;;;;;;18.98;14.50;;;;;;;;;;5104380;28;20237;-69
2023/01/22 03:41:26;;;;;;;23.08;15.82;;;;;;;;;;5104450;28;20261;-69
2023/01/22 03:43:52;;;;;;;22.27;15.23;;;;;;;;;;5104614;28;20208;-69
2023/01/22 03:46:20;;;;;;;20.15;15.10;;;;;;;;;;5104449;28;20233;-69
2023/01/22 03:48:49;;;;;;;20.52;14.75;;;;;;;;;;5103962;28;20207;-69
2023/01/22 03:51:16;;;;;;;18.42;14.50;;;;;;;;;;5104307;28;20206;-69
2023/01/22 03:53:43;;;;;;;19.98;14.85;;;;;;;;;;5104261;28;20196;-69
2023/01/22 03:56:11;;;;;;;17.27;13.63;;;;;;;;;;5104024;28;20199;-69
2023/01/22 03:58:38;;;;;;;21.42;14.82;;;;;;;;;;5104088;28;20200;-69
2023/01/22 04:01:06;;;;;;;20.33;13.82;;;;;;;;;;5104162;28;20196;-69
2023/01/22 04:03:33;;;;;;;19.48;14.45;;;;;;;;;;5104258;28;20256;-69
2023/01/22 04:06:00;;;;;;;17.90;13.80;;;;;;;;;;5103942;28;20200;-69
2023/01/22 04:08:27;;;;;;;20.95;13.75;;;;;;;;;;5103844;28;20406;-69
2023/01/22 04:10:54;;;;;;;18.45;13.98;;;;;;;;;;5104016;28;20237;-69
2023/01/22 04:13:20;;;;;;;20.88;14.48;;;;;;;;;;5104267;28;20242;-69
2023/01/22 04:15:46;;;;;;;20.58;15.23;;;;;;;;;;5103915;28;20233;-69
2023/01/22 04:18:13;;;;;;;18.75;13.85;;;;;;;;;;5103624;28;20541;-69
2023/01/22 04:20:40;;;;;;;19.17;14.20;;;;;;;;;;5103366;28;20200;-69
2023/01/22 04:23:07;;;;;;;20.98;14.38;;;;;;;;;;5103826;28;20246;-69
2023/01/22 04:25:33;;;;;;;19.15;14.70;;;;;;;;;;5103794;28;20274;-69
2023/01/22 04:28:00;;;;;;;19.27;14.32;;;;;;;;;;5103399;28;20261;-69
2023/01/22 04:30:26;;;;;;;20.58;13.75;;;;;;;;;;5103404;28;20210;-69
2023/01/22 04:32:52;;;;;;;21.05;14.68;;;;;;;;;;5103631;28;20537;-69
2023/01/22 04:35:18;;;;;;;18.65;14.27;;;;;;;;;;5103480;28;20195;-69
2023/01/22 04:37:46;;;;;;;19.73;14.73;;;;;;;;;;5103153;28;20503;-69
2023/01/22 04:40:13;;;;;;;22.17;15.90;;;;;;;;;;5103493;28;20390;-69
2023/01/22 04:42:39;;;;;;;22.02;15.00;;;;;;;;;;5103331;28;20402;-70
2023/01/22 04:45:05;;;;;;;20.52;14.27;;;;;;;;;;5103190;28;20211;-69
2023/01/22 04:47:32;;;;;;;20.10;14.38;;;;;;;;;;5103262;28;20309;-69
2023/01/22 04:49:58;;;;;;;22.63;14.95;;;;;;;;;;5103292;28;20196;-69
2023/01/22 04:52:24;;;;;;;19.20;14.45;;;;;;;;;;5102944;28;20199;-69
2023/01/22 04:54:52;;;;;;;19.00;13.95;;;;;;;;;;5103070;28;20364;-69
2023/01/22 04:57:19;;;;;;;18.00;14.30;;;;;;;;;;5102816;28;20203;-69
2023/01/22 04:59:45;;;;;;;18.50;14.68;;;;;;;;;;5103085;28;20196;-69
2023/01/22 05:02:11;;;;;;;17.23;13.55;;;;;;;;;;5102926;28;20233;-69
2023/01/22 05:04:37;;;;;;;17.45;13.90;;;;;;;;;;5102859;28;20196;-69
2023/01/22 05:07:03;;;;;;;20.85;14.52;;;;;;;;;;5102565;28;20241;-69
2023/01/22 05:09:30;;;;;;;18.27;14.13;;;;;;;;;;5102960;28;20242;-69
2023/01/22 05:11:57;;;;;;;20.17;14.27;;;;;;;;;;5102918;28;20233;-69
2023/01/22 05:14:23;;;;;;;22.05;14.77;;;;;;;;;;5102887;28;20250;-69
2023/01/22 05:16:50;;;;;;;19.02;14.75;;;;;;;;;;5102802;28;20550;-69
2023/01/22 05:19:16;;;;;;;17.40;13.48;;;;;;;;;;5102400;28;20192;-69
2023/01/22 05:21:42;;;;;;;19.42;14.57;;;;;;;;;;5102549;28;20241;-69
2023/01/22 05:24:09;;;;;;;18.48;13.48;;;;;;;;;;5102577;28;20241;-69
2023/01/22 05:26:35;;;;;;;19.13;14.18;;;;;;;;;;5102748;28;20211;-69
2023/01/22 05:29:02;;;;;;;22.05;15.38;;;;;;;;;;5102159;28;20223;-69
2023/01/22 05:31:29;;;;;;;20.25;15.02;;;;;;;;;;5102363;28;20233;-69
2023/01/22 05:33:55;;;;;;;18.75;14.18;;;;;;;;;;5102259;28;20234;-69
2023/01/22 05:36:21;;;;;;;20.33;15.70;;;;;;;;;;5102408;28;20199;-69
2023/01/22 05:38:47;;;;;;;24.27;15.20;;;;;;;;;;5102477;28;20266;-69
2023/01/22 05:41:14;;;;;;;21.92;16.30;;;;;;;;;;5102613;28;20200;-69
2023/01/22 05:43:40;;;;;;;19.83;14.80;;;;;;;;;;5102505;28;20217;-69
2023/01/22 05:46:07;;;;;;;18.42;13.55;;;;;;;;;;5102373;28;20411;-69
2023/01/22 05:48:34;;;;;;;19.75;14.60;;;;;;;;;;5101979;28;20434;-69
2023/01/22 05:51:02;;;;;;;17.65;14.02;;;;;;;;;;5102489;28;20561;-69
2023/01/22 05:53:28;;;;;;;18.13;13.43;;;;;;;;;;5102540;28;20565;-69
2023/01/22 05:55:54;;;;;;;19.98;14.02;;;;;;;;;;5102276;28;20506;-69
2023/01/22 05:58:20;;;;;;;18.73;14.23;;;;;;;;;;5102173;28;20238;-69
2023/01/22 06:00:47;;;;;;;20.65;13.93;;;;;;;;;;5102308;28;20199;-69
2023/01/22 06:03:14;;;;;;;18.80;14.52;;;;;;;;;;5102328;28;20203;-69
2023/01/22 06:05:40;;;;;;;16.63;13.55;;;;;;;;;;5102241;28;20200;-69
2023/01/22 06:08:06;;;;;;;17.27;14.00;;;;;;;;;;5102264;28;20227;-70
2023/01/22 06:10:33;;;;;;;19.60;14.27;;;;;;;;;;5102384;28;20503;-70
2023/01/22 06:12:59;;;;;;;20.40;14.93;;;;;;;;;;5102145;28;20223;-70
2023/01/22 06:15:25;;;;;;;20.38;15.05;;;;;;;;;;5102222;28;20208;-70
2023/01/22 06:17:51;;;;;;;19.75;14.35;;;;;;;;;;5101667;28;20195;-70
2023/01/22 06:20:19;;;;;;;19.85;14.55;;;;;;;;;;5102116;28;20200;-70
2023/01/22 06:22:45;;;;;;;19.63;14.30;;;;;;;;;;5101734;28;20204;-70
2023/01/22 06:25:12;;;;;;;21.02;14.63;;;;;;;;;;5102188;28;20419;-70
2023/01/22 06:27:38;;;;;;;19.73;14.40;;;;;;;;;;5101808;28;20245;-70
2023/01/22 06:30:05;;;;;;;18.33;14.10;;;;;;;;;;5101956;28;20223;-70
2023/01/22 06:32:31;;;;;;;19.13;14.80;;;;;;;;;;5101817;28;20500;-70
2023/01/22 06:34:57;;;;;;;18.98;14.80;;;;;;;;;;5101996;28;20199;-70
2023/01/22 06:37:25;;;;;;;20.10;15.48;;;;;;;;;;5101757;28;20196;-70
2023/01/22 06:39:51;;;;;;;20.40;15.43;;;;;;;;;;5102016;28;20191;-70
2023/01/22 06:42:17;;;;;;;19.73;15.23;;;;;;;;;;5101816;28;20200;-70
2023/01/22 06:44:43;;;;;;;17.92;13.88;;;;;;;;;;5105049;28;20203;-70
2023/01/22 06:47:09;;;;;;;18.30;14.02;;;;;;;;;;5105866;28;20200;-70
2023/01/22 06:49:36;;;;;;;24.40;15.88;;;;;;;;;;5106162;28;20215;-70
2023/01/22 06:52:05;;;;;;;21.27;15.40;;;;;;;;;;5106263;28;20196;-70
2023/01/22 06:54:32;;;;;;;20.20;15.45;;;;;;;;;;5105717;28;20196;-70
2023/01/22 06:57:00;;;;;;;20.80;15.13;;;;;;;;;;5106224;28;20203;-70
2023/01/22 06:59:26;;;;;;;18.80;14.73;;;;;;;;;;5105515;28;20440;-70
2023/01/22 07:01:53;;;;;;;18.30;14.70;;;;;;;;;;5105598;28;20207;-70
2023/01/22 07:04:19;;;;;;;20.67;15.60;;;;;;;;;;5105868;28;20212;-70
2023/01/22 07:06:45;;;;;;;21.45;14.85;;;;;;;;;;5105511;28;20251;-70
2023/01/22 07:09:11;;;;;;;22.67;15.93;;;;;;;;;;5105304;28;20438;-70
2023/01/22 07:11:37;;;;;;;19.02;15.20;;;;;;;;;;5105200;28;20423;-70
2023/01/22 07:14:05;;;;;;;22.95;16.70;;;;;;;;;;5105115;28;20196;-70
2023/01/22 07:16:31;;;;;;;22.48;16.88;;;;;;;;;;5105665;28;20199;-70
2023/01/22 07:18:57;;;;;;;25.15;17.05;;;;;;;;;;5105139;28;20192;-70
2023/01/22 07:21:25;;;;;;;26.15;17.90;;;;;;;;;;5105471;28;20273;-70
2023/01/22 07:23:52;;;;;;;25.10;17.75;;;;;;;;;;5105347;28;20203;-70
2023/01/22 07:26:18;;;;;;;21.70;16.85;;;;;;;;;;5105552;28;20245;-70
2023/01/22 07:28:45;;;;;;;26.20;18.25;;;;;;;;;;5104860;28;20249;-70
2023/01/22 07:31:12;;;;;;;24.15;17.38;;;;;;;;;;5105438;28;20242;-70
2023/01/22 07:33:39;;;;;;;21.55;15.98;;;;;;;;;;5105715;28;20208;-70
2023/01/22 07:36:06;;;;;;;25.85;17.10;;;;;;;;;;5105285;28;20526;-70
2023/01/22 07:38:32;;;;;;;24.60;17.08;;;;;;;;;;5105303;28;20199;-70
2023/01/22 07:41:01;;;;;;;22.27;16.17;;;;;;;;;;5104965;28;20499;-70
2023/01/22 07:43:28;;;;;;;22.20;16.05;;;;;;;;;;5105236;28;20551;-71
2023/01/22 07:45:54;;;;;;;26.27;16.65;;;;;;;;;;5105299;28;20196;-71
2023/01/22 07:48:21;;;;;;;23.48;16.73;;;;;;;;;;5105049;28;20199;-70
2023/01/22 07:50:48;;;;;;;22.73;17.08;;;;;;;;;;5104849;28;20202;-70
2023/01/22 07:53:14;;;;;;;24.67;17.35;;;;;;;;;;5105077;28;20195;-71
2023/01/22 07:55:40;;;;;;;24.92;17.50;;;;;;;;;;5103818;28;20196;-71
2023/01/22 07:58:07;;;;;;;26.75;17.95;;;;;;;;;;5104282;28;20207;-71
2023/01/22 08:00:34;;;;;;;22.40;16.63;;;;;;;;;;5104128;28;20241;-71
2023/01/22 08:03:01;;;;;;;25.20;17.58;;;;;;;;;;5104560;28;20253;-71
2023/01/22 08:05:29;;;;;;;23.80;17.10;;;;;;;;;;5104376;28;20502;-71
2023/01/22 08:07:55;;;;;;;22.38;16.27;;;;;;;;;;5104271;28;20494;-71
2023/01/22 08:10:21;;;;;;;23.70;16.73;;;;;;;;;;5104151;28;20557;-70
2023/01/22 08:12:47;;;;;;;21.55;16.23;;;;;;;;;;5104163;28;20518;-70
2023/01/22 08:15:14;;;;;;;26.35;18.85;;;;;;;;;;5104364;28;20397;-70
2023/01/22 08:17:40;;;;;;;24.58;16.92;;;;;;;;;;5103852;28;20264;-70
2023/01/22 08:20:07;;;;;;;23.23;17.63;;;;;;;;;;5104006;28;20199;-70
2023/01/22 08:22:35;;;;;;;23.58;16.88;;;;;;;;;;5103876;28;20203;-70
2023/01/22 08:25:01;;;;;;;24.48;17.27;;;;;;;;;;5103957;28;20200;-70
2023/01/22 08:27:27;;;;;;;25.88;17.92;;;;;;;;;;5103693;28;20223;-70
2023/01/22 08:29:54;;;;;;;25.40;18.38;;;;;;;;;;5103806;28;20441;-70
2023/01/22 08:32:20;;;;;;;27.67;18.05;;;;;;;;;;5103692;28;20226;-70
2023/01/22 08:34:46;;;;;;;27.17;19.20;;;;;;;;;;5103936;28;20195;-70
2023/01/22 08:37:12;;;;;;;25.77;18.42;;;;;;;;;;5103704;28;20196;-71
2023/01/22 08:39:40;;;;;;;23.45;18.17;;;;;;;;;;5103260;28;20237;-71
2023/01/22 08:42:06;;;;;;;25.08;17.60;;;;;;;;;;5103320;28;20369;-71
2023/01/22 08:44:32;;;;;;;24.33;17.08;;;;;;;;;;5103577;28;20245;-71
2023/01/22 08:46:58;;;;;;;24.10;17.58;;;;;;;;;;5102612;28;20188;-71
2023/01/22 08:49:25;;;;;;;25.27;18.90;;;;;;;;;;5102737;28;20386;-70
2023/01/22 08:51:51;;;;;;;28.92;18.45;;;;;;;;;;5101904;28;20227;-70
2023/01/22 08:54:17;;;;;;;26.65;20.17;;;;;;;;;;5101687;28;20571;-71
2023/01/22 08:56:46;;;;;;;26.45;19.23;;;;;;;;;;5102723;28;20233;-71
2023/01/22 08:59:13;;;;;;;26.48;19.08;;;;;;;;;;5102416;28;20579;-71
2023/01/22 09:01:39;;;;;;;24.15;17.92;;;;;;;;;;5102656;28;20204;-71
2023/01/22 09:04:05;;;;;;;23.08;16.98;;;;;;;;;;5102892;28;20202;-71
2023/01/22 09:06:32;;;;;;;21.67;17.35;;;;;;;;;;5102345;28;20241;-71
2023/01/22 09:09:00;;;;;;;24.38;17.02;;;;;;;;;;5102739;28;20257;-71
2023/01/22 09:11:26;;;;;;;26.60;17.90;;;;;;;;;;5103233;28;20196;-70
2023/01/22 09:13:55;;;;;;;22.48;17.15;;;;;;;;;;5102890;28;20266;-70
2023/01/22 09:16:21;;;;;;;22.25;16.58;;;;;;;;;;5103143;28;20237;-70
2023/01/22 09:18:47;;;;;;;24.83;16.75;;;;;;;;;;5102768;28;20518;-70
2023/01/22 09:21:13;;;;;;;24.60;16.67;;;;;;;;;;5102871;28;20234;-70
2023/01/22 09:23:40;;;;;;;23.00;17.42;;;;;;;;;;5102896;28;20204;-71
2023/01/22 09:26:06;;;;;;;22.75;16.77;;;;;;;;;;5103000;28;20200;-71
2023/01/22 09:28:32;;;;;;;23.88;16.73;;;;;;;;;;5102334;28;20224;-71
2023/01/22 09:31:00;;;;;;;26.90;17.50;;;;;;;;;;5102862;28;20215;-71
2023/01/22 09:33:26;;;;;;;21.63;16.50;;;;;;;;;;5102736;28;20305;-71
2023/01/22 09:35:52;;;;;;;22.13;16.33;;;;;;;;;;5102619;28;20203;-71
2023/01/22 09:38:18;;;;;;;19.83;14.38;;;;;;;;;;5102544;28;20196;-71
2023/01/22 09:40:47;;;;;;;19.80;14.85;;;;;;;;;;5102880;28;20361;-71
2023/01/22 09:43:21;;;;;;;19.80;15.38;;;;;;;;;;5102804;28;20196;-70
2023/01/22 09:45:48;;;;;;;19.27;14.70;;;;;;;;;;5102506;28;20245;-70
2023/01/22 09:48:17;;;;;;;18.38;13.98;;;;;;;;;;5102261;28;20196;-70
2023/01/22 09:50:44;;;;;;;17.23;14.48;;;;;;;;;;5102688;28;20456;-70
2023/01/22 09:53:12;;;;;;;18.55;13.98;;;;;;;;;;5102704;28;20206;-70
2023/01/22 09:55:42;;;;;;;18.83;14.23;;;;;;;;;;5102597;28;20203;-70
2023/01/22 09:58:10;;;;;;;17.45;13.57;;;;;;;;;;5102468;28;20196;-71
2023/01/22 10:00:38;;;;;;;19.52;14.38;;;;;;;;;;5102388;28;20200;-71
2023/01/22 10:03:06;;;;;;;20.27;14.65;;;;;;;;;;5102490;28;20208;-71
2023/01/22 10:05:35;;;;;;;19.08;13.50;;;;;;;;;;5102607;28;20207;-70
2023/01/22 10:08:04;;;;;;;19.27;14.90;;;;;;;;;;5102355;28;20249;-70
2023/01/22 10:10:31;;;;;;;18.85;14.50;;;;;;;;;;5102259;28;20254;-70
2023/01/22 10:13:00;;;;;;;22.10;15.07;;;;;;;;;;5102383;28;20560;-70
2023/01/22 10:15:27;;;;;;;18.98;13.52;;;;;;;;;;5102490;28;20245;-70
2023/01/22 10:17:55;;;;;;;19.15;14.38;;;;;;;;;;5102319;28;20233;-70
2023/01/22 10:20:21;;;;;;;20.52;14.85;;;;;;;;;;5106541;28;20219;-71
2023/01/22 10:22:49;;;;;;;21.05;15.07;;;;;;;;;;5106180;28;20207;-71
2023/01/22 10:25:16;;;;;;;19.40;14.35;;;;;;;;;;5106395;28;20195;-71
2023/01/22 10:27:43;;;;;;;19.95;14.27;;;;;;;;;;5105946;28;20390;-71
2023/01/22 10:30:17;;;;;;;19.75;14.68;;;;;;;;;;5106152;28;20215;-71
2023/01/22 10:32:44;;;;;;;21.20;14.32;;;;;;;;;;5106138;28;20188;-71
2023/01/22 10:35:16;;;;;;;23.35;15.02;;;;;;;;;;5106043;28;20199;-71
2023/01/22 10:37:43;;;;;;;20.73;15.07;;;;;;;;;;5105794;28;20199;-71
2023/01/22 10:40:20;;;;;;;20.88;15.18;;;;;;;;;;5105798;28;20191;-71
2023/01/22 10:42:46;;;;;;;21.90;15.95;;;;;;;;;;5105921;28;20241;-71
2023/01/22 10:45:15;;;;;;;22.52;16.17;;;;;;;;;;5105904;28;20301;-71
2023/01/22 10:47:42;;;;;;;21.52;16.33;;;;;;;;;;5105659;28;20196;-71
2023/01/22 10:50:12;;;;;;;21.60;15.43;;;;;;;;;;5105705;28;20211;-71
2023/01/22 10:52:39;;;;;;;22.08;16.48;;;;;;;;;;5106175;28;20195;-71
2023/01/22 10:55:07;;;;;;;21.77;16.25;;;;;;;;;;5105525;28;20242;-71
2023/01/22 10:57:36;;;;;;;24.00;15.73;;;;;;;;;;5105331;28;20196;-71
2023/01/22 11:00:07;;;;;;;21.42;15.90;;;;;;;;;;5105612;28;20488;-71
2023/01/22 11:02:34;;;;;;;21.85;16.75;;;;;;;;;;5105509;28;20195;-71
2023/01/22 11:05:07;;;;;;;23.05;16.95;;;;;;;;;;5105412;28;20196;-71
2023/01/22 11:07:33;;;;;;;22.75;17.10;;;;;;;;;;5105600;28;20203;-71
2023/01/22 11:10:03;;;;;;;22.48;16.38;;;;;;;;;;5105401;28;20215;-71
2023/01/22 11:12:30;;;;;;;26.20;19.58;;;;;;;;;;5105284;28;20195;-71
2023/01/22 11:15:02;;;;;;;24.95;16.52;;;;;;;;;;5105271;28;20196;-71
2023/01/22 11:17:31;;;;;;;24.13;16.75;;;;;;;;;;5104910;28;20233;-71
2023/01/22 11:20:00;;;;;;;24.77;16.33;;;;;;;;;;5105093;28;20192;-71
2023/01/22 11:22:28;;;;;;;23.10;16.33;;;;;;;;;;5104716;28;20515;-71
2023/01/22 11:24:54;;;;;;;26.85;18.17;;;;;;;;;;5105313;28;20200;-71
2023/01/22 11:27:28;;;;;;;25.90;17.08;;;;;;;;;;5104598;28;20220;-71
2023/01/22 11:30:18;;;;;;;21.88;16.52;;;;;;;;;;5103769;28;20295;-71
2023/01/22 11:32:55;;;;;;;23.65;15.65;;;;;;;;;;5093848;28;20556;-71
2023/01/22 11:35:24;;;;;;;20.10;14.93;;;;;;;;;;5104771;28;20253;-71
2023/01/22 11:37:57;;;;;;;22.38;15.57;;;;;;;;;;5104684;28;20195;-71
2023/01/22 11:40:25;;;;;;;20.65;15.20;;;;;;;;;;5104849;28;20230;-71
2023/01/22 11:43:01;;;;;;;19.65;14.48;;;;;;;;;;5104434;28;20200;-71
2023/01/22 11:45:32;;;;;;;16.65;13.30;;;;;;;;;;5104904;28;20494;-71
2023/01/22 11:48:08;;;;;;;18.60;13.73;;;;;;;;;;5104295;28;20204;-71
2023/01/22 11:50:39;;;;;;;18.55;13.48;;;;;;;;;;5104434;28;20644;-71
2023/01/22 11:53:13;;;;;;;18.27;14.13;;;;;;;;;;5104331;28;20199;-71
2023/01/22 11:55:49;;;;;;;19.75;14.05;;;;;;;;;;5104517;28;20196;-71
2023/01/22 11:58:20;;;;;;;17.75;13.27;;;;;;;;;;5104057;28;20187;-71
2023/01/22 12:00:51;;;;;;;18.08;13.50;;;;;;;;;;5104299;28;20208;-71
2023/01/22 12:03:35;;;;;;;22.33;14.32;;;;;;;;;;5104196;28;20195;-71
2023/01/22 12:06:11;;;;;;;21.00;14.57;;;;;;;;;;5104170;28;20206;-71
2023/01/22 12:08:43;;;;;;;19.00;14.00;;;;;;;;;;5103710;28;20203;-71
2023/01/22 12:11:19;;;;;;;20.08;14.27;;;;;;;;;;5103954;28;20223;-71
2023/01/22 12:14:09;;;;;;;21.17;14.85;;;;;;;;;;5103873;28;20233;-70
2023/01/22 12:16:40;;;;;;;19.95;13.43;;;;;;;;;;5093793;28;20201;-71
2023/01/22 12:19:14;;;;;;;16.55;13.18;;;;;;;;;;5069719;28;20208;-71
2023/01/22 12:21:51;;;;;;;16.50;12.40;;;;;;;;;;5077089;28;20200;-71
2023/01/22 12:24:20;;;;;;;15.88;11.85;;;;;;;;;;5067087;28;20267;-71
2023/01/22 12:26:48;;;;;;;20.02;14.93;;;;;;;;;;5057931;28;20582;-71
2023/01/22 12:29:18;;;;;;;22.30;16.10;;;;;;;;;;5075008;28;20306;-71
2023/01/22 12:31:47;;;;;;;17.48;13.88;;;;;;;;;;5062818;28;20297;-71
2023/01/22 12:34:16;;;;;;;17.52;13.48;;;;;;;;;;5065149;28;20251;-71
2023/01/22 12:36:43;;;;;;;16.70;12.65;;;;;;;;;;5061763;28;20255;-71
2023/01/22 12:39:16;;;;;;;16.42;13.30;;;;;;;;;;5080872;28;20269;-71
2023/01/22 12:41:46;;;;;;;15.10;11.70;;;;;;;;;;5059704;28;20226;-71
2023/01/22 12:44:19;;;;;;;15.40;11.68;;;;;;;;;;5065946;28;20438;-71
2023/01/22 12:46:50;;;;;;;18.52;12.15;;;;;;;;;;5067748;28;20207;-71
2023/01/22 12:49:17;;;;;;;18.30;12.63;;;;;;;;;;5083434;28;20236;-71
2023/01/22 12:51:45;;;;;;;17.23;12.52;;;;;;;;;;5096896;28;20209;-71
2023/01/22 12:54:20;;;;;;;15.15;11.95;;;;;;;;;;5108344;28;20246;-71
2023/01/22 12:56:46;;;;;;;17.13;12.27;;;;;;;;;;5107752;28;20237;-71
2023/01/22 12:59:32;;;;;;;16.80;12.70;;;;;;;;;;5107199;28;20218;-71
2023/01/22 13:01:59;;;;;;;15.25;12.05;;;;;;;;;;5107224;28;20196;-71
2023/01/22 13:04:27;;;;;;;14.80;12.15;;;;;;;;;;5106733;28;20196;-71
2023/01/22 13:07:02;;;;;;;16.15;11.27;;;;;;;;;;5105879;28;20252;-72
2023/01/22 13:09:35;;;;;;;18.83;12.73;;;;;;;;;;5105841;28;20195;-71
2023/01/22 13:12:07;;;;;;;18.63;13.75;;;;;;;;;;5106807;28;20219;-71
2023/01/22 13:14:34;;;;;;;22.35;15.77;;;;;;;;;;5107774;28;20221;-71
2023/01/22 13:17:02;;;;;;;24.25;14.65;;;;;;;;;;5107525;28;20196;-71
2023/01/22 13:19:29;;;;;;;20.33;14.68;;;;;;;;;;5108018;28;20196;-71
2023/01/22 13:21:57;;;;;;;19.80;13.82;;;;;;;;;;5108108;28;20549;-71
2023/01/22 13:24:23;;;;;;;19.75;14.25;;;;;;;;;;5107443;28;20233;-71
2023/01/22 13:26:53;;;;;;;21.88;14.40;;;;;;;;;;5107493;28;20195;-71
2023/01/22 13:29:22;;;;;;;21.83;15.45;;;;;;;;;;5107842;28;20229;-71
2023/01/22 13:31:52;;;;;;;19.48;14.88;;;;;;;;;;5108128;28;20216;-71
2023/01/22 13:34:20;;;;;;;17.58;13.48;;;;;;;;;;5107839;28;20195;-71
2023/01/22 13:36:47;;;;;;;16.95;13.20;;;;;;;;;;5107249;28;20233;-71
2023/01/22 13:39:16;;;;;;;18.80;13.50;;;;;;;;;;5107342;28;20261;-71
2023/01/22 13:41:42;;;;;;;18.58;13.30;;;;;;;;;;5106930;28;20298;-71
2023/01/22 13:44:16;;;;;;;17.67;13.65;;;;;;;;;;5106839;28;20196;-71
2023/01/22 13:46:43;;;;;;;16.98;13.68;;;;;;;;;;5107023;28;20196;-71
2023/01/22 13:49:19;;;;;;;20.63;14.63;;;;;;;;;;5107368;28;20244;-71
2023/01/22 13:51:46;;;;;;;20.58;14.13;;;;;;;;;;5107463;28;20211;-71
2023/01/22 13:54:18;;;;;;;17.98;13.75;;;;;;;;;;5112839;28;20417;-71
2023/01/22 13:56:44;;;;;;;19.63;15.07;;;;;;;;;;5114481;28;20204;-71
2023/01/22 13:59:17;;;;;;;19.35;13.48;;;;;;;;;;5114189;28;20218;-71
2023/01/22 14:01:44;;;;;;;18.75;14.55;;;;;;;;;;5114349;28;20194;-71
2023/01/22 14:04:24;;;;;;;16.77;13.27;;;;;;;;;;5114512;28;20195;-71
2023/01/22 14:06:50;;;;;;;18.33;13.95;;;;;;;;;;5114561;28;20332;-71
2023/01/22 14:09:24;;;;;;;17.65;13.65;;;;;;;;;;5114228;28;20342;-72
2023/01/22 14:11:51;;;;;;;21.38;14.57;;;;;;;;;;5114064;28;20208;-71
2023/01/22 14:14:19;;;;;;;21.60;14.80;;;;;;;;;;5114362;28;20196;-71
2023/01/22 14:16:45;;;;;;;20.08;14.52;;;;;;;;;;5114011;28;20516;-71
2023/01/22 14:19:12;;;;;;;17.30;13.55;;;;;;;;;;5114555;28;20196;-71
2023/01/22 14:21:38;;;;;;;17.35;13.45;;;;;;;;;;5113813;28;20406;-71
2023/01/22 14:24:05;;;;;;;16.35;12.88;;;;;;;;;;5114102;28;20204;-71
2023/01/22 14:26:31;;;;;;;16.55;12.73;;;;;;;;;;5114015;28;20253;-71
2023/01/22 14:28:58;;;;;;;16.67;13.05;;;;;;;;;;5113832;28;20493;-72